sensor_id;sensor_type;location;lat;lon;timestamp;P1;durP1;ratioP1;P2;durP2;ratioP2
26219;SDS011;13955;55.574;37.474;2022-11-15T00:01:48;3.20;;;0.70;;
26219;SDS011;13955;55.574;37.474;2022-11-15T00:04:36;4.37;;;0.72;;
26219;SDS011;13955;55.574;37.474;2022-11-15T00:07:24;2.67;;;0.62;;
26219;SDS011;13955;55.574;37.474;2022-11-15T00:10:11;2.25;;;0.85;;
26219;SDS011;13955;55.574;37.474;2022-11-15T00:12:59;3.45;;;0.82;;
26219;SDS011;13955;55.574;37.474;2022-11-15T00:15:48;5.28;;;0.80;;
26219;SDS011;13955;55.574;37.474;2022-11-15T00:18:37;5.87;;;1.22;;
26219;SDS011;13955;55.574;37.474;2022-11-15T00:21:25;2.22;;;0.70;;
26219;SDS011;13955;55.574;37.474;2022-11-15T00:24:13;7.25;;;0.93;;
26219;SDS011;13955;55.574;37.474;2022-11-15T00:27:01;3.12;;;1.20;;
26219;SDS011;13955;55.574;37.474;2022-11-15T00:29:49;1.67;;;0.80;;
26219;SDS011;13955;55.574;37.474;2022-11-15T00:32:37;3.50;;;0.80;;
26219;SDS011;13955;55.574;37.474;2022-11-15T00:35:25;4.12;;;1.12;;
26219;SDS011;13955;55.574;37.474;2022-11-15T00:38:13;3.05;;;1.05;;
26219;SDS011;13955;55.574;37.474;2022-11-15T00:41:02;3.45;;;1.00;;
26219;SDS011;13955;55.574;37.474;2022-11-15T00:43:51;5.80;;;0.80;;
26219;SDS011;13955;55.574;37.474;2022-11-15T00:46:39;4.72;;;0.70;;
26219;SDS011;13955;55.574;37.474;2022-11-15T00:49:27;4.87;;;0.65;;
26219;SDS011;13955;55.574;37.474;2022-11-15T00:52:15;3.52;;;1.25;;
26219;SDS011;13955;55.574;37.474;2022-11-15T00:55:04;3.00;;;0.80;;
26219;SDS011;13955;55.574;37.474;2022-11-15T00:57:52;2.42;;;0.95;;
26219;SDS011;13955;55.574;37.474;2022-11-15T01:00:40;5.45;;;1.02;;
26219;SDS011;13955;55.574;37.474;2022-11-15T01:03:28;2.90;;;1.05;;
26219;SDS011;13955;55.574;37.474;2022-11-15T01:06:17;4.92;;;1.20;;
26219;SDS011;13955;55.574;37.474;2022-11-15T01:09:05;4.42;;;0.90;;
26219;SDS011;13955;55.574;37.474;2022-11-15T01:11:53;2.52;;;0.80;;
26219;SDS011;13955;55.574;37.474;2022-11-15T01:14:40;3.17;;;0.80;;
26219;SDS011;13955;55.574;37.474;2022-11-15T01:17:29;2.20;;;0.90;;
26219;SDS011;13955;55.574;37.474;2022-11-15T01:20:18;3.60;;;0.80;;
26219;SDS011;13955;55.574;37.474;2022-11-15T01:23:06;6.22;;;1.10;;
26219;SDS011;13955;55.574;37.474;2022-11-15T01:25:58;3.98;;;1.15;;
26219;SDS011;13955;55.574;37.474;2022-11-15T01:28:47;2.30;;;0.98;;
26219;SDS011;13955;55.574;37.474;2022-11-15T01:31:35;2.20;;;0.72;;
26219;SDS011;13955;55.574;37.474;2022-11-15T01:34:24;1.92;;;0.72;;
26219;SDS011;13955;55.574;37.474;2022-11-15T01:37:11;4.28;;;0.72;;
26219;SDS011;13955;55.574;37.474;2022-11-15T01:39:59;4.30;;;0.98;;
26219;SDS011;13955;55.574;37.474;2022-11-15T01:42:47;2.10;;;0.80;;
26219;SDS011;13955;55.574;37.474;2022-11-15T01:45:35;4.45;;;1.25;;
26219;SDS011;13955;55.574;37.474;2022-11-15T01:48:25;1.75;;;0.80;;
26219;SDS011;13955;55.574;37.474;2022-11-15T01:51:14;3.70;;;0.88;;
26219;SDS011;13955;55.574;37.474;2022-11-15T01:54:06;7.42;;;3.00;;
26219;SDS011;13955;55.574;37.474;2022-11-15T01:56:57;5.78;;;0.90;;
26219;SDS011;13955;55.574;37.474;2022-11-15T01:59:46;4.00;;;1.20;;
26219;SDS011;13955;55.574;37.474;2022-11-15T02:02:34;4.12;;;1.30;;
26219;SDS011;13955;55.574;37.474;2022-11-15T02:05:23;1.77;;;0.60;;
26219;SDS011;13955;55.574;37.474;2022-11-15T02:08:11;2.60;;;0.70;;
26219;SDS011;13955;55.574;37.474;2022-11-15T02:11:00;3.05;;;0.90;;
26219;SDS011;13955;55.574;37.474;2022-11-15T02:13:49;4.58;;;1.05;;
26219;SDS011;13955;55.574;37.474;2022-11-15T02:23:28;4.00;;;0.70;;
26219;SDS011;13955;55.574;37.474;2022-11-15T02:26:29;6.05;;;1.00;;
26219;SDS011;13955;55.574;37.474;2022-11-15T02:32:40;2.22;;;0.85;;
26219;SDS011;13955;55.574;37.474;2022-11-15T02:38:34;6.22;;;1.22;;
26219;SDS011;13955;55.574;37.474;2022-11-15T02:41:35;6.45;;;0.68;;
26219;SDS011;13955;55.574;37.474;2022-11-15T02:44:30;1.72;;;0.70;;
26219;SDS011;13955;55.574;37.474;2022-11-15T02:47:18;7.25;;;1.25;;
26219;SDS011;13955;55.574;37.474;2022-11-15T02:50:09;2.60;;;0.68;;
26219;SDS011;13955;55.574;37.474;2022-11-15T02:52:59;4.62;;;0.68;;
26219;SDS011;13955;55.574;37.474;2022-11-15T02:55:47;4.65;;;1.22;;
26219;SDS011;13955;55.574;37.474;2022-11-15T03:04:52;6.50;;;0.68;;
26219;SDS011;13955;55.574;37.474;2022-11-15T03:11:08;5.87;;;0.85;;
26219;SDS011;13955;55.574;37.474;2022-11-15T03:17:16;4.75;;;1.20;;
26219;SDS011;13955;55.574;37.474;2022-11-15T03:20:15;4.83;;;1.87;;
26219;SDS011;13955;55.574;37.474;2022-11-15T03:23:09;2.85;;;1.10;;
26219;SDS011;13955;55.574;37.474;2022-11-15T03:25:58;6.72;;;1.17;;
26219;SDS011;13955;55.574;37.474;2022-11-15T03:28:50;4.75;;;0.88;;
26219;SDS011;13955;55.574;37.474;2022-11-15T03:31:42;2.00;;;0.85;;
26219;SDS011;13955;55.574;37.474;2022-11-15T03:40:47;8.53;;;0.80;;
26219;SDS011;13955;55.574;37.474;2022-11-15T03:43:59;7.22;;;0.80;;
26219;SDS011;13955;55.574;37.474;2022-11-15T03:46:54;5.53;;;1.05;;
26219;SDS011;13955;55.574;37.474;2022-11-15T03:49:45;10.10;;;1.25;;
26219;SDS011;13955;55.574;37.474;2022-11-15T03:52:35;3.05;;;0.85;;
26219;SDS011;13955;55.574;37.474;2022-11-15T03:55:23;3.52;;;1.00;;
26219;SDS011;13955;55.574;37.474;2022-11-15T03:58:11;1.85;;;0.80;;
26219;SDS011;13955;55.574;37.474;2022-11-15T04:01:00;5.15;;;1.35;;
26219;SDS011;13955;55.574;37.474;2022-11-15T04:03:47;6.17;;;1.10;;
26219;SDS011;13955;55.574;37.474;2022-11-15T04:06:35;8.20;;;1.02;;
26219;SDS011;13955;55.574;37.474;2022-11-15T04:09:23;2.12;;;0.90;;
26219;SDS011;13955;55.574;37.474;2022-11-15T04:12:11;2.75;;;0.85;;
26219;SDS011;13955;55.574;37.474;2022-11-15T04:15:03;6.22;;;1.20;;
26219;SDS011;13955;55.574;37.474;2022-11-15T04:17:56;7.97;;;0.95;;
26219;SDS011;13955;55.574;37.474;2022-11-15T04:20:44;7.55;;;1.15;;
26219;SDS011;13955;55.574;37.474;2022-11-15T04:23:49;4.42;;;1.00;;
26219;SDS011;13955;55.574;37.474;2022-11-15T04:26:55;5.90;;;0.90;;
26219;SDS011;13955;55.574;37.474;2022-11-15T04:29:43;4.80;;;0.68;;
26219;SDS011;13955;55.574;37.474;2022-11-15T04:32:31;6.40;;;1.42;;
26219;SDS011;13955;55.574;37.474;2022-11-15T04:35:19;6.70;;;1.10;;
26219;SDS011;13955;55.574;37.474;2022-11-15T04:38:07;2.83;;;0.60;;
26219;SDS011;13955;55.574;37.474;2022-11-15T04:40:56;5.50;;;1.07;;
26219;SDS011;13955;55.574;37.474;2022-11-15T04:43:44;4.08;;;0.98;;
26219;SDS011;13955;55.574;37.474;2022-11-15T04:46:32;7.35;;;0.90;;
26219;SDS011;13955;55.574;37.474;2022-11-15T04:49:19;4.25;;;0.90;;
26219;SDS011;13955;55.574;37.474;2022-11-15T04:52:07;5.97;;;2.22;;
26219;SDS011;13955;55.574;37.474;2022-11-15T04:54:55;14.07;;;1.20;;
26219;SDS011;13955;55.574;37.474;2022-11-15T04:57:43;7.40;;;0.98;;
26219;SDS011;13955;55.574;37.474;2022-11-15T05:00:32;4.00;;;0.98;;
26219;SDS011;13955;55.574;37.474;2022-11-15T05:03:20;5.75;;;1.20;;
26219;SDS011;13955;55.574;37.474;2022-11-15T05:06:26;4.75;;;1.22;;
26219;SDS011;13955;55.574;37.474;2022-11-15T05:09:14;7.08;;;1.25;;
26219;SDS011;13955;55.574;37.474;2022-11-15T05:12:03;6.67;;;2.22;;
26219;SDS011;13955;55.574;37.474;2022-11-15T05:14:51;10.00;;;1.40;;
26219;SDS011;13955;55.574;37.474;2022-11-15T05:17:39;14.15;;;1.67;;
26219;SDS011;13955;55.574;37.474;2022-11-15T05:20:27;10.55;;;1.17;;
26219;SDS011;13955;55.574;37.474;2022-11-15T05:23:15;5.22;;;1.30;;
26219;SDS011;13955;55.574;37.474;2022-11-15T05:26:03;4.75;;;1.47;;
26219;SDS011;13955;55.574;37.474;2022-11-15T05:28:57;8.95;;;1.50;;
26219;SDS011;13955;55.574;37.474;2022-11-15T05:31:42;8.13;;;1.47;;
26219;SDS011;13955;55.574;37.474;2022-11-15T05:34:31;3.22;;;1.12;;
26219;SDS011;13955;55.574;37.474;2022-11-15T05:37:19;7.90;;;0.90;;
26219;SDS011;13955;55.574;37.474;2022-11-15T05:40:07;4.45;;;1.40;;
26219;SDS011;13955;55.574;37.474;2022-11-15T05:42:55;5.95;;;1.60;;
26219;SDS011;13955;55.574;37.474;2022-11-15T05:45:47;4.92;;;1.00;;
26219;SDS011;13955;55.574;37.474;2022-11-15T05:48:36;7.45;;;1.20;;
26219;SDS011;13955;55.574;37.474;2022-11-15T05:51:26;4.70;;;1.40;;
26219;SDS011;13955;55.574;37.474;2022-11-15T05:54:16;3.58;;;1.10;;
26219;SDS011;13955;55.574;37.474;2022-11-15T05:57:06;11.68;;;1.80;;
26219;SDS011;13955;55.574;37.474;2022-11-15T05:59:54;13.60;;;1.42;;
26219;SDS011;13955;55.574;37.474;2022-11-15T06:02:43;4.92;;;1.77;;
26219;SDS011;13955;55.574;37.474;2022-11-15T06:05:31;3.33;;;1.07;;
26219;SDS011;13955;55.574;37.474;2022-11-15T06:08:19;9.03;;;1.47;;
26219;SDS011;13955;55.574;37.474;2022-11-15T06:11:07;1.52;;;0.82;;
26219;SDS011;13955;55.574;37.474;2022-11-15T06:13:55;14.40;;;2.17;;
26219;SDS011;13955;55.574;37.474;2022-11-15T06:16:44;2.95;;;1.45;;
26219;SDS011;13955;55.574;37.474;2022-11-15T06:19:32;8.78;;;1.67;;
26219;SDS011;13955;55.574;37.474;2022-11-15T06:22:20;10.98;;;1.70;;
26219;SDS011;13955;55.574;37.474;2022-11-15T06:25:08;6.67;;;1.70;;
26219;SDS011;13955;55.574;37.474;2022-11-15T06:27:56;4.28;;;1.40;;
26219;SDS011;13955;55.574;37.474;2022-11-15T06:30:45;5.37;;;1.62;;
26219;SDS011;13955;55.574;37.474;2022-11-15T06:33:33;11.22;;;2.30;;
26219;SDS011;13955;55.574;37.474;2022-11-15T06:36:21;14.13;;;4.60;;
26219;SDS011;13955;55.574;37.474;2022-11-15T06:39:09;5.87;;;1.65;;
26219;SDS011;13955;55.574;37.474;2022-11-15T06:41:57;10.88;;;1.67;;
26219;SDS011;13955;55.574;37.474;2022-11-15T06:44:44;10.82;;;2.00;;
26219;SDS011;13955;55.574;37.474;2022-11-15T06:47:32;9.58;;;1.60;;
26219;SDS011;13955;55.574;37.474;2022-11-15T06:50:21;7.78;;;2.60;;
26219;SDS011;13955;55.574;37.474;2022-11-15T06:53:08;10.25;;;2.10;;
26219;SDS011;13955;55.574;37.474;2022-11-15T06:56:07;6.20;;;1.77;;
26219;SDS011;13955;55.574;37.474;2022-11-15T06:58:53;8.30;;;1.60;;
26219;SDS011;13955;55.574;37.474;2022-11-15T07:01:42;4.55;;;1.30;;
26219;SDS011;13955;55.574;37.474;2022-11-15T07:04:30;20.43;;;4.87;;
26219;SDS011;13955;55.574;37.474;2022-11-15T07:07:18;7.45;;;2.37;;
26219;SDS011;13955;55.574;37.474;2022-11-15T07:10:06;4.92;;;1.42;;
26219;SDS011;13955;55.574;37.474;2022-11-15T07:12:55;4.25;;;1.80;;
26219;SDS011;13955;55.574;37.474;2022-11-15T07:15:43;4.17;;;1.52;;
26219;SDS011;13955;55.574;37.474;2022-11-15T07:18:33;13.13;;;2.98;;
26219;SDS011;13955;55.574;37.474;2022-11-15T07:21:21;4.60;;;1.55;;
26219;SDS011;13955;55.574;37.474;2022-11-15T07:24:09;4.12;;;1.30;;
26219;SDS011;13955;55.574;37.474;2022-11-15T07:26:57;6.40;;;1.60;;
26219;SDS011;13955;55.574;37.474;2022-11-15T07:29:45;8.68;;;2.35;;
26219;SDS011;13955;55.574;37.474;2022-11-15T07:32:32;8.18;;;2.05;;
26219;SDS011;13955;55.574;37.474;2022-11-15T07:35:22;4.40;;;1.70;;
26219;SDS011;13955;55.574;37.474;2022-11-15T07:38:10;7.35;;;2.00;;
26219;SDS011;13955;55.574;37.474;2022-11-15T07:41:00;8.00;;;1.62;;
26219;SDS011;13955;55.574;37.474;2022-11-15T07:43:53;10.50;;;2.55;;
26219;SDS011;13955;55.574;37.474;2022-11-15T07:46:41;10.28;;;1.20;;
26219;SDS011;13955;55.574;37.474;2022-11-15T07:49:29;7.00;;;1.75;;
26219;SDS011;13955;55.574;37.474;2022-11-15T07:52:17;5.00;;;1.77;;
26219;SDS011;13955;55.574;37.474;2022-11-15T07:55:05;6.65;;;1.00;;
26219;SDS011;13955;55.574;37.474;2022-11-15T07:57:59;10.32;;;2.08;;
26219;SDS011;13955;55.574;37.474;2022-11-15T08:00:52;8.38;;;1.20;;
26219;SDS011;13955;55.574;37.474;2022-11-15T08:03:40;9.83;;;1.77;;
26219;SDS011;13955;55.574;37.474;2022-11-15T08:06:28;8.58;;;1.57;;
26219;SDS011;13955;55.574;37.474;2022-11-15T08:09:16;4.87;;;1.35;;
26219;SDS011;13955;55.574;37.474;2022-11-15T08:12:04;3.85;;;1.40;;
26219;SDS011;13955;55.574;37.474;2022-11-15T08:14:52;6.60;;;1.55;;
26219;SDS011;13955;55.574;37.474;2022-11-15T08:17:39;4.60;;;1.12;;
26219;SDS011;13955;55.574;37.474;2022-11-15T08:20:28;7.60;;;1.77;;
26219;SDS011;13955;55.574;37.474;2022-11-15T08:23:17;6.33;;;1.42;;
26219;SDS011;13955;55.574;37.474;2022-11-15T08:26:05;3.83;;;1.00;;
26219;SDS011;13955;55.574;37.474;2022-11-15T08:28:52;6.25;;;1.70;;
26219;SDS011;13955;55.574;37.474;2022-11-15T08:31:40;7.97;;;1.10;;
26219;SDS011;13955;55.574;37.474;2022-11-15T08:34:28;6.03;;;1.60;;
26219;SDS011;13955;55.574;37.474;2022-11-15T08:37:16;5.60;;;2.70;;
26219;SDS011;13955;55.574;37.474;2022-11-15T08:40:05;8.63;;;1.52;;
26219;SDS011;13955;55.574;37.474;2022-11-15T08:42:53;9.60;;;3.45;;
26219;SDS011;13955;55.574;37.474;2022-11-15T08:45:41;10.68;;;1.72;;
26219;SDS011;13955;55.574;37.474;2022-11-15T08:48:29;7.25;;;2.20;;
26219;SDS011;13955;55.574;37.474;2022-11-15T08:51:17;5.53;;;1.40;;
26219;SDS011;13955;55.574;37.474;2022-11-15T08:54:05;5.53;;;1.62;;
26219;SDS011;13955;55.574;37.474;2022-11-15T08:56:53;8.08;;;2.15;;
26219;SDS011;13955;55.574;37.474;2022-11-15T08:59:41;9.18;;;1.65;;
26219;SDS011;13955;55.574;37.474;2022-11-15T09:02:29;11.18;;;1.77;;
26219;SDS011;13955;55.574;37.474;2022-11-15T09:05:17;8.10;;;3.05;;
26219;SDS011;13955;55.574;37.474;2022-11-15T09:08:05;5.55;;;1.60;;
26219;SDS011;13955;55.574;37.474;2022-11-15T09:10:53;6.35;;;1.90;;
26219;SDS011;13955;55.574;37.474;2022-11-15T09:13:42;7.12;;;2.42;;
26219;SDS011;13955;55.574;37.474;2022-11-15T09:16:30;15.00;;;2.22;;
26219;SDS011;13955;55.574;37.474;2022-11-15T09:19:17;3.37;;;1.35;;
26219;SDS011;13955;55.574;37.474;2022-11-15T09:22:06;8.08;;;2.10;;
26219;SDS011;13955;55.574;37.474;2022-11-15T09:24:54;4.97;;;1.55;;
26219;SDS011;13955;55.574;37.474;2022-11-15T09:27:42;5.15;;;1.85;;
26219;SDS011;13955;55.574;37.474;2022-11-15T09:30:30;7.87;;;1.85;;
26219;SDS011;13955;55.574;37.474;2022-11-15T09:33:18;5.22;;;1.60;;
26219;SDS011;13955;55.574;37.474;2022-11-15T09:36:07;4.22;;;1.87;;
26219;SDS011;13955;55.574;37.474;2022-11-15T09:38:57;9.68;;;1.57;;
26219;SDS011;13955;55.574;37.474;2022-11-15T09:41:55;7.92;;;1.67;;
26219;SDS011;13955;55.574;37.474;2022-11-15T09:44:55;5.03;;;1.37;;
26219;SDS011;13955;55.574;37.474;2022-11-15T09:53:22;10.90;;;2.20;;
26219;SDS011;13955;55.574;37.474;2022-11-15T09:55:51;5.22;;;1.47;;
26219;SDS011;13955;55.574;37.474;2022-11-15T09:58:36;4.55;;;2.05;;
26219;SDS011;13955;55.574;37.474;2022-11-15T10:01:34;7.17;;;1.80;;
26219;SDS011;13955;55.574;37.474;2022-11-15T10:03:51;7.37;;;2.40;;
26219;SDS011;13955;55.574;37.474;2022-11-15T10:06:25;5.30;;;2.00;;
26219;SDS011;13955;55.574;37.474;2022-11-15T10:09:13;6.28;;;1.80;;
26219;SDS011;13955;55.574;37.474;2022-11-15T10:11:45;6.37;;;1.22;;
26219;SDS011;13955;55.574;37.474;2022-11-15T10:14:16;6.08;;;1.60;;
26219;SDS011;13955;55.574;37.474;2022-11-15T10:17:09;4.65;;;1.72;;
26219;SDS011;13955;55.574;37.474;2022-11-15T10:19:56;5.30;;;1.57;;
26219;SDS011;13955;55.574;37.474;2022-11-15T10:25:23;9.88;;;1.77;;
26219;SDS011;13955;55.574;37.474;2022-11-15T10:27:59;7.15;;;1.50;;
26219;SDS011;13955;55.574;37.474;2022-11-15T10:30:38;8.08;;;1.87;;
26219;SDS011;13955;55.574;37.474;2022-11-15T10:33:22;6.37;;;1.90;;
26219;SDS011;13955;55.574;37.474;2022-11-15T10:36:14;6.08;;;2.40;;
26219;SDS011;13955;55.574;37.474;2022-11-15T10:39:15;9.88;;;2.02;;
26219;SDS011;13955;55.574;37.474;2022-11-15T10:47:38;5.92;;;1.40;;
26219;SDS011;13955;55.574;37.474;2022-11-15T10:49:28;7.60;;;1.50;;
26219;SDS011;13955;55.574;37.474;2022-11-15T10:52:19;8.53;;;2.05;;
26219;SDS011;13955;55.574;37.474;2022-11-15T10:54:57;7.20;;;1.55;;
26219;SDS011;13955;55.574;37.474;2022-11-15T10:57:47;4.80;;;1.45;;
26219;SDS011;13955;55.574;37.474;2022-11-15T11:00:12;12.55;;;1.90;;
26219;SDS011;13955;55.574;37.474;2022-11-15T11:05:35;3.95;;;1.50;;
26219;SDS011;13955;55.574;37.474;2022-11-15T11:10:56;4.85;;;1.30;;
26219;SDS011;13955;55.574;37.474;2022-11-15T11:13:31;10.95;;;2.45;;
26219;SDS011;13955;55.574;37.474;2022-11-15T11:21:30;6.45;;;2.15;;
26219;SDS011;13955;55.574;37.474;2022-11-15T11:24:12;6.78;;;2.37;;
26219;SDS011;13955;55.574;37.474;2022-11-15T11:27:04;5.03;;;2.25;;
26219;SDS011;13955;55.574;37.474;2022-11-15T11:40:43;6.30;;;2.30;;
26219;SDS011;13955;55.574;37.474;2022-11-15T11:46:28;7.58;;;2.00;;
26219;SDS011;13955;55.574;37.474;2022-11-15T11:49:02;5.92;;;1.70;;
26219;SDS011;13955;55.574;37.474;2022-11-15T11:54:19;7.08;;;2.20;;
26219;SDS011;13955;55.574;37.474;2022-11-15T11:56:50;5.28;;;2.00;;
26219;SDS011;13955;55.574;37.474;2022-11-15T11:59:37;8.53;;;1.80;;
26219;SDS011;13955;55.574;37.474;2022-11-15T12:02:21;6.00;;;2.47;;
26219;SDS011;13955;55.574;37.474;2022-11-15T12:05:01;11.63;;;2.40;;
26219;SDS011;13955;55.574;37.474;2022-11-15T12:07:34;8.95;;;2.30;;
26219;SDS011;13955;55.574;37.474;2022-11-15T12:10:17;9.48;;;2.40;;
26219;SDS011;13955;55.574;37.474;2022-11-15T12:15:47;8.88;;;2.75;;
26219;SDS011;13955;55.574;37.474;2022-11-15T12:18:52;8.78;;;2.47;;
26219;SDS011;13955;55.574;37.474;2022-11-15T12:21:30;12.95;;;2.80;;
26219;SDS011;13955;55.574;37.474;2022-11-15T12:27:03;8.05;;;2.72;;
26219;SDS011;13955;55.574;37.474;2022-11-15T12:29:37;9.05;;;2.50;;
26219;SDS011;13955;55.574;37.474;2022-11-15T12:32:04;8.13;;;2.65;;
26219;SDS011;13955;55.574;37.474;2022-11-15T12:34:38;9.58;;;2.58;;
26219;SDS011;13955;55.574;37.474;2022-11-15T12:45:38;7.40;;;2.72;;
26219;SDS011;13955;55.574;37.474;2022-11-15T12:50:59;6.53;;;1.70;;
26219;SDS011;13955;55.574;37.474;2022-11-15T12:53:30;6.62;;;1.92;;
26219;SDS011;13955;55.574;37.474;2022-11-15T12:58:48;7.37;;;2.15;;
26219;SDS011;13955;55.574;37.474;2022-11-15T13:07:03;8.10;;;2.70;;
26219;SDS011;13955;55.574;37.474;2022-11-15T13:15:51;11.65;;;3.72;;
26219;SDS011;13955;55.574;37.474;2022-11-15T13:17:47;11.63;;;3.10;;
26219;SDS011;13955;55.574;37.474;2022-11-15T13:20:23;13.88;;;3.22;;
26219;SDS011;13955;55.574;37.474;2022-11-15T13:28:32;13.00;;;3.55;;
26219;SDS011;13955;55.574;37.474;2022-11-15T13:36:48;17.75;;;7.40;;
26219;SDS011;13955;55.574;37.474;2022-11-15T13:39:26;25.62;;;9.18;;
26219;SDS011;13955;55.574;37.474;2022-11-15T13:42:00;16.97;;;4.67;;
26219;SDS011;13955;55.574;37.474;2022-11-15T13:44:31;16.57;;;6.22;;
26219;SDS011;13955;55.574;37.474;2022-11-15T13:47:15;12.25;;;4.53;;
26219;SDS011;13955;55.574;37.474;2022-11-15T13:49:47;13.43;;;4.90;;
26219;SDS011;13955;55.574;37.474;2022-11-15T13:52:18;15.18;;;5.47;;
26219;SDS011;13955;55.574;37.474;2022-11-15T13:54:57;12.03;;;5.70;;
26219;SDS011;13955;55.574;37.474;2022-11-15T13:57:44;19.12;;;7.00;;
26219;SDS011;13955;55.574;37.474;2022-11-15T14:06:06;15.68;;;8.20;;
26219;SDS011;13955;55.574;37.474;2022-11-15T14:11:54;18.87;;;7.10;;
26219;SDS011;13955;55.574;37.474;2022-11-15T14:14:22;18.87;;;7.65;;
26219;SDS011;13955;55.574;37.474;2022-11-15T14:16:54;22.82;;;8.25;;
26219;SDS011;13955;55.574;37.474;2022-11-15T14:22:13;14.23;;;6.97;;
26219;SDS011;13955;55.574;37.474;2022-11-15T14:24:46;17.75;;;6.80;;
26219;SDS011;13955;55.574;37.474;2022-11-15T14:29:53;18.92;;;6.75;;
26219;SDS011;13955;55.574;37.474;2022-11-15T14:32:29;14.58;;;6.37;;
26219;SDS011;13955;55.574;37.474;2022-11-15T14:35:12;14.98;;;6.17;;
26219;SDS011;13955;55.574;37.474;2022-11-15T14:37:43;14.73;;;5.90;;
26219;SDS011;13955;55.574;37.474;2022-11-15T14:40:15;12.00;;;6.20;;
26219;SDS011;13955;55.574;37.474;2022-11-15T14:42:47;11.97;;;4.80;;
26219;SDS011;13955;55.574;37.474;2022-11-15T14:45:20;13.30;;;4.67;;
26219;SDS011;13955;55.574;37.474;2022-11-15T14:47:50;8.90;;;4.17;;
26219;SDS011;13955;55.574;37.474;2022-11-15T14:50:21;15.70;;;4.85;;
26219;SDS011;13955;55.574;37.474;2022-11-15T14:52:51;7.60;;;4.53;;
26219;SDS011;13955;55.574;37.474;2022-11-15T14:55:25;12.70;;;4.70;;
26219;SDS011;13955;55.574;37.474;2022-11-15T14:58:02;10.08;;;4.80;;
26219;SDS011;13955;55.574;37.474;2022-11-15T15:00:33;13.22;;;4.40;;
26219;SDS011;13955;55.574;37.474;2022-11-15T15:03:05;8.43;;;4.72;;
26219;SDS011;13955;55.574;37.474;2022-11-15T15:05:39;12.03;;;4.65;;
26219;SDS011;13955;55.574;37.474;2022-11-15T15:08:11;12.37;;;4.62;;
26219;SDS011;13955;55.574;37.474;2022-11-15T15:10:42;9.45;;;3.37;;
26219;SDS011;13955;55.574;37.474;2022-11-15T15:13:20;10.03;;;4.65;;
26219;SDS011;13955;55.574;37.474;2022-11-15T15:15:52;12.75;;;4.92;;
26219;SDS011;13955;55.574;37.474;2022-11-15T15:18:22;8.55;;;4.17;;
26219;SDS011;13955;55.574;37.474;2022-11-15T15:20:56;8.35;;;4.17;;
26219;SDS011;13955;55.574;37.474;2022-11-15T15:23:31;12.58;;;4.53;;
26219;SDS011;13955;55.574;37.474;2022-11-15T15:26:03;13.58;;;4.53;;
26219;SDS011;13955;55.574;37.474;2022-11-15T15:28:33;14.33;;;4.37;;
26219;SDS011;13955;55.574;37.474;2022-11-15T15:31:04;12.60;;;4.40;;
26219;SDS011;13955;55.574;37.474;2022-11-15T15:33:35;9.95;;;4.35;;
26219;SDS011;13955;55.574;37.474;2022-11-15T15:36:05;11.73;;;5.37;;
26219;SDS011;13955;55.574;37.474;2022-11-15T15:38:38;7.10;;;4.12;;
26219;SDS011;13955;55.574;37.474;2022-11-15T15:41:16;9.30;;;3.67;;
26219;SDS011;13955;55.574;37.474;2022-11-15T15:43:42;12.68;;;3.90;;
26219;SDS011;13955;55.574;37.474;2022-11-15T15:46:18;11.88;;;3.83;;
26219;SDS011;13955;55.574;37.474;2022-11-15T15:48:46;8.80;;;4.05;;
26219;SDS011;13955;55.574;37.474;2022-11-15T15:51:16;8.20;;;3.55;;
26219;SDS011;13955;55.574;37.474;2022-11-15T15:53:47;8.88;;;4.50;;
26219;SDS011;13955;55.574;37.474;2022-11-15T15:56:19;10.23;;;4.53;;
26219;SDS011;13955;55.574;37.474;2022-11-15T15:58:49;10.10;;;4.05;;
26219;SDS011;13955;55.574;37.474;2022-11-15T16:01:20;11.33;;;4.83;;
26219;SDS011;13955;55.574;37.474;2022-11-15T16:03:52;19.73;;;5.75;;
26219;SDS011;13955;55.574;37.474;2022-11-15T16:06:36;7.05;;;3.58;;
26219;SDS011;13955;55.574;37.474;2022-11-15T16:09:13;12.15;;;5.30;;
26219;SDS011;13955;55.574;37.474;2022-11-15T16:11:45;12.90;;;5.78;;
26219;SDS011;13955;55.574;37.474;2022-11-15T16:14:17;13.30;;;5.60;;
26219;SDS011;13955;55.574;37.474;2022-11-15T16:16:47;17.10;;;6.05;;
26219;SDS011;13955;55.574;37.474;2022-11-15T16:19:17;14.83;;;6.70;;
26219;SDS011;13955;55.574;37.474;2022-11-15T16:21:47;13.72;;;6.78;;
26219;SDS011;13955;55.574;37.474;2022-11-15T16:24:20;13.48;;;6.35;;
26219;SDS011;13955;55.574;37.474;2022-11-15T16:26:50;12.25;;;6.47;;
26219;SDS011;13955;55.574;37.474;2022-11-15T16:29:21;18.37;;;7.83;;
26219;SDS011;13955;55.574;37.474;2022-11-15T16:31:51;17.40;;;7.45;;
26219;SDS011;13955;55.574;37.474;2022-11-15T16:34:21;21.45;;;8.78;;
26219;SDS011;13955;55.574;37.474;2022-11-15T16:36:52;23.47;;;9.58;;
26219;SDS011;13955;55.574;37.474;2022-11-15T16:39:23;18.98;;;8.18;;
26219;SDS011;13955;55.574;37.474;2022-11-15T16:41:58;17.25;;;7.83;;
26219;SDS011;13955;55.574;37.474;2022-11-15T16:44:30;18.77;;;9.05;;
26219;SDS011;13955;55.574;37.474;2022-11-15T16:47:01;19.00;;;8.35;;
26219;SDS011;13955;55.574;37.474;2022-11-15T16:52:00;16.97;;;9.85;;
26219;SDS011;13955;55.574;37.474;2022-11-15T16:54:30;14.00;;;8.23;;
26219;SDS011;13955;55.574;37.474;2022-11-15T16:57:01;25.55;;;14.70;;
26219;SDS011;13955;55.574;37.474;2022-11-15T16:59:31;10.93;;;5.70;;
26219;SDS011;13955;55.574;37.474;2022-11-15T17:02:01;13.18;;;5.40;;
26219;SDS011;13955;55.574;37.474;2022-11-15T17:04:31;11.70;;;6.10;;
26219;SDS011;13955;55.574;37.474;2022-11-15T17:07:01;13.60;;;6.65;;
26219;SDS011;13955;55.574;37.474;2022-11-15T17:09:33;17.60;;;7.97;;
26219;SDS011;13955;55.574;37.474;2022-11-15T17:12:03;14.93;;;7.47;;
26219;SDS011;13955;55.574;37.474;2022-11-15T17:14:34;15.20;;;6.75;;
26219;SDS011;13955;55.574;37.474;2022-11-15T17:17:05;13.98;;;7.47;;
26219;SDS011;13955;55.574;37.474;2022-11-15T17:19:37;16.40;;;6.90;;
26219;SDS011;13955;55.574;37.474;2022-11-15T17:22:09;11.15;;;6.35;;
26219;SDS011;13955;55.574;37.474;2022-11-15T17:24:39;13.35;;;4.85;;
26219;SDS011;13955;55.574;37.474;2022-11-15T17:27:10;11.65;;;6.35;;
26219;SDS011;13955;55.574;37.474;2022-11-15T17:29:40;8.93;;;5.22;;
26219;SDS011;13955;55.574;37.474;2022-11-15T17:32:10;16.17;;;7.12;;
26219;SDS011;13955;55.574;37.474;2022-11-15T17:34:41;16.75;;;7.05;;
26219;SDS011;13955;55.574;37.474;2022-11-15T17:37:11;13.65;;;6.55;;
26219;SDS011;13955;55.574;37.474;2022-11-15T17:39:42;12.53;;;5.95;;
26219;SDS011;13955;55.574;37.474;2022-11-15T17:42:13;17.25;;;6.53;;
26219;SDS011;13955;55.574;37.474;2022-11-15T17:44:43;9.90;;;5.05;;
26219;SDS011;13955;55.574;37.474;2022-11-15T17:47:13;14.58;;;6.30;;
26219;SDS011;13955;55.574;37.474;2022-11-15T17:49:43;13.30;;;6.53;;
26219;SDS011;13955;55.574;37.474;2022-11-15T17:52:21;12.18;;;5.90;;
26219;SDS011;13955;55.574;37.474;2022-11-15T17:54:45;11.48;;;6.00;;
26219;SDS011;13955;55.574;37.474;2022-11-15T17:57:15;15.30;;;7.37;;
26219;SDS011;13955;55.574;37.474;2022-11-15T17:59:46;11.60;;;6.60;;
26219;SDS011;13955;55.574;37.474;2022-11-15T18:02:16;18.57;;;6.45;;
26219;SDS011;13955;55.574;37.474;2022-11-15T18:04:46;15.10;;;7.33;;
26219;SDS011;13955;55.574;37.474;2022-11-15T18:07:16;12.33;;;6.40;;
26219;SDS011;13955;55.574;37.474;2022-11-15T18:09:48;13.32;;;6.83;;
26219;SDS011;13955;55.574;37.474;2022-11-15T18:12:18;13.65;;;7.12;;
26219;SDS011;13955;55.574;37.474;2022-11-15T18:14:48;11.15;;;6.62;;